createdAt,value
2022-10-14T00:03:03.152Z,21.63
2022-10-14T00:15:00.457Z,22.10
2022-10-14T00:18:03.621Z,20.27
2022-10-14T00:31:33.710Z,20.17
2022-10-14T00:51:11.232Z,19.33
2022-10-14T00:54:18.764Z,18.60
2022-10-14T01:05:01.997Z,18.83
2022-10-14T01:18:15.053Z,17.70
2022-10-14T01:25:04.667Z,16.97
2022-10-14T01:28:22.182Z,17.43
2022-10-14T01:41:28.233Z,14.67
2022-10-14T01:51:32.578Z,14.93
2022-10-14T01:57:37.906Z,15.17
2022-10-14T02:01:00.866Z,15.00
2022-10-14T02:22:05.709Z,13.80
2022-10-14T02:59:16.039Z,12.60
2022-10-14T03:09:01.621Z,12.17
2022-10-14T03:32:45.824Z,12.57
2022-10-14T03:35:17.040Z,14.70
2022-10-14T03:38:26.785Z,14.23
2022-10-14T03:40:58.773Z,12.53
2022-10-14T03:47:46.656Z,13.63
2022-10-14T03:50:45.065Z,13.57
2022-10-14T03:53:45.840Z,14.13
2022-10-14T03:57:02.942Z,14.83
2022-10-14T04:13:38.807Z,16.77
2022-10-14T04:16:18.830Z,16.13
2022-10-14T04:19:21.392Z,16.20
2022-10-14T04:21:54.062Z,14.90
2022-10-14T04:24:23.143Z,15.77
2022-10-14T04:26:53.459Z,15.93
2022-10-14T04:33:10.227Z,16.23
2022-10-14T04:35:38.565Z,15.40
2022-10-14T04:38:09.603Z,16.53
2022-10-14T04:40:37.946Z,15.30
2022-10-14T04:43:06.874Z,14.73
2022-10-14T04:45:35.854Z,22.93
2022-10-14T04:48:35.331Z,19.47
2022-10-14T04:51:10.828Z,17.20
2022-10-14T04:53:47.762Z,16.50
2022-10-14T04:56:19.336Z,17.00
2022-10-14T04:58:47.886Z,17.00
2022-10-14T05:01:19.830Z,15.93
2022-10-14T05:03:54.016Z,18.97
2022-10-14T05:06:24.954Z,18.20
2022-10-14T05:08:54.164Z,16.00
2022-10-14T05:11:22.966Z,17.10
2022-10-14T05:13:51.427Z,16.13
2022-10-14T05:16:30.452Z,15.67
2022-10-14T05:19:04.047Z,18.20
2022-10-14T05:21:39.249Z,16.13
2022-10-14T05:24:12.142Z,17.20
2022-10-14T05:26:43.386Z,16.63
2022-10-14T05:29:14.727Z,16.67
2022-10-14T05:32:09.111Z,15.87
2022-10-14T05:34:37.403Z,16.27
2022-10-14T05:37:09.949Z,16.33
2022-10-14T05:39:38.190Z,17.53
2022-10-14T05:42:09.812Z,20.00
2022-10-14T05:44:38.267Z,19.87
2022-10-14T05:47:06.813Z,25.43
2022-10-14T05:49:38.621Z,22.10
2022-10-14T05:52:09.327Z,21.13
2022-10-14T05:54:39.632Z,18.40
2022-10-14T05:57:09.911Z,18.03
2022-10-14T05:59:52.094Z,16.67
2022-10-14T06:02:26.554Z,16.37
2022-10-14T06:04:56.511Z,14.63
2022-10-14T06:07:29.123Z,13.83
2022-10-14T06:10:09.264Z,16.87
2022-10-14T06:12:38.016Z,15.27
2022-10-14T06:15:12.540Z,15.20
2022-10-14T06:17:42.894Z,15.00
2022-10-14T06:20:16.530Z,14.10
2022-10-14T06:22:46.333Z,14.57
2022-10-14T06:25:16.773Z,15.23
2022-10-14T06:27:45.459Z,14.90
2022-10-14T06:30:15.202Z,15.33
2022-10-14T06:32:45.875Z,15.53
2022-10-14T06:35:15.372Z,15.57
2022-10-14T06:37:53.258Z,13.53
2022-10-14T06:40:22.204Z,14.93
2022-10-14T06:43:00.871Z,15.67
2022-10-14T06:45:30.717Z,15.10
2022-10-14T06:47:59.303Z,15.10
2022-10-14T06:50:27.588Z,14.73
2022-10-14T06:52:57.135Z,14.70
2022-10-14T06:55:25.191Z,16.97
2022-10-14T06:57:59.125Z,14.43
2022-10-14T07:00:27.778Z,15.50
2022-10-14T07:03:10.874Z,15.47
2022-10-14T07:05:43.492Z,15.63
2022-10-14T07:08:15.421Z,16.47
2022-10-14T07:10:48.465Z,17.93
2022-10-14T07:13:16.927Z,15.97
2022-10-14T07:15:57.896Z,17.30
2022-10-14T07:18:26.732Z,15.90
2022-10-14T07:20:54.985Z,16.00
2022-10-14T07:23:24.908Z,16.50
2022-10-14T07:25:57.682Z,17.73
2022-10-14T07:28:36.701Z,17.37
2022-10-14T07:31:23.898Z,15.70
2022-10-14T07:34:10.669Z,15.70
2022-10-14T07:36:57.112Z,17.10
2022-10-14T07:40:00.174Z,16.27
2022-10-14T07:42:33.579Z,16.30
2022-10-14T07:46:03.994Z,15.07
2022-10-14T07:58:50.904Z,15.77
2022-10-14T08:05:04.151Z,16.40
2022-10-14T08:15:46.229Z,16.50
2022-10-14T08:18:36.309Z,16.67
2022-10-14T08:21:15.065Z,16.50
2022-10-14T08:24:05.130Z,16.83
2022-10-14T08:26:37.617Z,17.13
2022-10-14T08:29:14.413Z,17.33
2022-10-14T08:31:57.296Z,16.10
2022-10-14T08:34:35.936Z,17.27
2022-10-14T08:37:07.056Z,17.23
2022-10-14T08:39:50.053Z,16.60
2022-10-14T08:42:41.243Z,17.63
2022-10-14T08:45:32.284Z,18.10
2022-10-14T08:48:26.442Z,19.87
2022-10-14T08:51:12.004Z,18.73
2022-10-14T08:53:45.640Z,21.67
2022-10-14T08:56:53.963Z,23.90
2022-10-14T08:59:49.651Z,21.67
2022-10-14T09:02:33.728Z,23.40
2022-10-14T09:05:07.108Z,24.83
2022-10-14T09:07:44.297Z,24.27
2022-10-14T09:10:28.555Z,22.20
2022-10-14T09:13:14.313Z,34.30
2022-10-14T09:15:47.759Z,24.77
2022-10-14T09:18:36.523Z,25.17
2022-10-14T09:21:52.268Z,23.80
2022-10-14T09:24:50.308Z,22.90
2022-10-14T09:27:56.865Z,23.33
2022-10-14T09:30:35.550Z,23.23
2022-10-14T09:33:05.865Z,22.57
2022-10-14T09:35:40.047Z,23.57
2022-10-14T09:38:14.361Z,23.17
2022-10-14T09:40:57.265Z,23.47
2022-10-14T09:43:56.922Z,27.40
2022-10-14T09:46:29.745Z,21.53
2022-10-14T09:49:17.312Z,22.37
2022-10-14T09:51:58.761Z,21.90
2022-10-14T09:54:31.988Z,20.63
2022-10-14T09:57:05.825Z,19.57
2022-10-14T10:00:16.561Z,20.97
2022-10-14T10:03:41.773Z,19.53
2022-10-14T10:06:18.073Z,17.20
2022-10-14T10:09:46.653Z,16.20
2022-10-14T15:11:08.547Z,12.07
2022-10-14T15:14:26.537Z,11.73
2022-10-14T15:17:05.967Z,12.27
2022-10-14T15:19:41.691Z,12.50
2022-10-14T15:22:37.169Z,12.10
2022-10-14T15:25:25.444Z,12.23
2022-10-14T15:28:21.023Z,11.63
2022-10-14T15:31:34.693Z,11.57
2022-10-14T15:34:53.218Z,12.50
2022-10-14T15:41:17.323Z,11.83
2022-10-14T15:44:12.651Z,12.33
2022-10-14T15:47:09.805Z,11.70
2022-10-14T15:50:16.362Z,10.30
2022-10-14T15:52:56.115Z,11.20
2022-10-14T15:55:37.712Z,11.43
2022-10-14T16:01:30.817Z,11.60
2022-10-14T16:05:00.586Z,15.17
2022-10-14T16:07:49.466Z,14.03
2022-10-14T16:10:46.925Z,11.87
2022-10-14T16:13:49.283Z,10.63
2022-10-14T16:16:41.202Z,10.40
2022-10-14T16:19:48.881Z,10.90
2022-10-14T16:22:27.149Z,10.30
2022-10-14T16:28:42.908Z,10.07
2022-10-14T16:31:15.876Z,11.67
2022-10-14T16:37:04.889Z,10.07
2022-10-14T17:49:42.730Z,9.30
2022-10-14T18:42:05.460Z,10.20
2022-10-14T18:44:48.778Z,9.83
2022-10-14T18:47:33.821Z,10.47
2022-10-14T18:50:12.697Z,10.27
2022-10-14T18:52:59.965Z,9.47
2022-10-14T18:55:28.552Z,10.00
2022-10-14T18:58:29.203Z,11.60
2022-10-14T19:01:11.578Z,11.60
2022-10-14T19:03:59.763Z,12.20
2022-10-14T19:07:04.657Z,11.83
2022-10-14T19:09:57.901Z,11.50
2022-10-14T19:13:01.296Z,9.87
2022-10-14T19:15:53.586Z,10.70
2022-10-14T19:21:22.508Z,11.93
2022-10-14T19:23:58.408Z,10.97
2022-10-14T19:27:25.725Z,10.47
2022-10-14T19:30:03.435Z,12.67
2022-10-14T19:32:42.714Z,11.13
2022-10-14T19:39:51.713Z,12.03
2022-10-14T19:42:37.708Z,11.47
2022-10-14T19:45:22.679Z,11.20
2022-10-14T19:48:02.577Z,11.47
2022-10-14T19:50:45.262Z,10.83
2022-10-14T20:00:24.746Z,10.70
2022-10-14T20:03:02.012Z,10.53
2022-10-14T20:05:40.611Z,10.33
2022-10-14T20:11:25.077Z,10.43
2022-10-14T20:14:21.057Z,11.07
2022-10-14T20:17:04.781Z,10.43
2022-10-14T20:20:10.822Z,11.03
2022-10-14T20:22:56.617Z,10.83
2022-10-14T20:28:43.807Z,10.80
2022-10-14T20:31:25.295Z,11.13
2022-10-14T20:34:08.469Z,10.63
2022-10-14T20:37:11.680Z,9.63
2022-10-14T20:40:12.453Z,9.47
2022-10-14T20:43:00.111Z,8.50
2022-10-14T20:50:06.480Z,8.63
2022-10-14T20:56:47.165Z,8.37
2022-10-14T21:03:17.776Z,7.60
2022-10-14T21:06:33.818Z,8.47
2022-10-14T21:10:28.572Z,8.20
2022-10-14T21:14:07.995Z,7.67
2022-10-14T21:35:42.290Z,6.60
2022-10-14T21:38:31.107Z,7.07
2022-10-14T21:44:57.031Z,6.20
2022-10-14T21:51:08.119Z,6.63
2022-10-14T21:54:28.555Z,6.17
2022-10-14T22:01:02.997Z,6.53
2022-10-14T22:04:46.900Z,6.80
2022-10-14T22:18:05.284Z,6.40
2022-10-14T22:23:55.843Z,6.03
2022-10-14T22:26:49.672Z,6.20
2022-10-14T22:29:56.485Z,5.47
2022-10-14T22:32:51.685Z,6.73
2022-10-14T22:35:31.118Z,6.90
2022-10-14T22:38:16.803Z,6.40
2022-10-14T22:41:36.233Z,7.23
2022-10-14T22:44:45.018Z,8.87
2022-10-14T22:47:16.603Z,6.20
2022-10-14T22:50:23.950Z,7.97
2022-10-14T22:53:27.173Z,7.60
2022-10-14T22:56:47.728Z,7.73
2022-10-14T22:59:37.707Z,7.43
2022-10-14T23:02:31.617Z,8.67
2022-10-14T23:05:44.305Z,7.93
2022-10-14T23:08:36.162Z,6.93
2022-10-14T23:14:26.622Z,6.80
2022-10-14T23:17:09.924Z,7.40
2022-10-14T23:20:04.333Z,7.87
2022-10-14T23:23:06.958Z,7.57
2022-10-14T23:26:03.717Z,7.27
2022-10-14T23:28:49.142Z,7.30
2022-10-14T23:31:31.525Z,6.63
2022-10-14T23:34:07.842Z,6.83
2022-10-14T23:36:39.375Z,6.90
2022-10-14T23:40:00.696Z,6.23
2022-10-14T23:46:10.807Z,7.40
2022-10-14T23:56:24.830Z,7.53
2022-10-14T23:59:38.818Z,8.00
